Shosei Maru — JD2993 — position and weather

sailwx.info

Track history (hours):
 
Tides and Currents Weather Stations Pressure Air Temp Water Temp Dewpoint Dewpoint Depression Visibility Wind Speed Wind Dir Waves Ship Positions

Shosei Maru

Last reported at 2017-Oct-20 14:33 UTC. Time now 2017-Oct-20 16:12 UTC.
Position N 34°38' E 135°28'.

Length 68 m; draft 4 m.

Type: Cargo ship. MMSI: 431001108.

Date/timePositionNaut miles runAvg speedWind from/ knotsBaromVisibWave heightAir tempDewpointWater temp
2017-Oct-20 14:33N 34°38' E 135°28'0 0.0
2017-Oct-20 14:15N 34°38' E 135°28'0 0.0
2017-Oct-20 13:21N 34°38' E 135°28'0 0.0
2017-Oct-20 12:57N 34°38' E 135°28'0 0.0
2017-Oct-20 11:27N 34°38' E 135°28'0 0.0
2017-Oct-19 12:57N 34°38' E 135°28'0 0.0
2017-Oct-19 12:21N 34°38' E 135°28'0 0.0
2017-Oct-19 11:15N 34°38' E 135°28'0 0.0
2017-Oct-19 07:58N 34°38' E 135°28'2 4.4
2017-Oct-19 07:29N 34°39' E 135°26'5 9.5
2017-Oct-19 07:00N 34°36' E 135°21'510.3
2017-Oct-19 06:28N 34°31' E 135°23'0 0.1
2017-Oct-19 05:51N 34°31' E 135°23'0 0.0
2017-Oct-19 04:45N 34°31' E 135°23'0 0.0
2017-Oct-19 04:27N 34°31' E 135°23'0 0.0
2017-Oct-19 03:57N 34°31' E 135°23'0 0.0
2017-Oct-19 03:27N 34°31' E 135°23'0 0.0
2017-Oct-19 02:57N 34°31' E 135°23'0 0.0
2017-Oct-19 01:21N 34°31' E 135°23'0 0.0
2017-Oct-18 23:51N 34°31' E 135°23'0 0.0
2017-Oct-18 23:09N 34°31' E 135°23'0 0.0
2017-Oct-18 22:57N 34°31' E 135°23'0 0.0
2017-Oct-18 22:27N 34°31' E 135°23'0 0.0
2017-Oct-18 21:51N 34°31' E 135°23'0 0.0
2017-Oct-18 21:27N 34°31' E 135°23'0 0.0
2017-Oct-18 20:57N 34°31' E 135°23'0 0.0
2017-Oct-18 20:27N 34°31' E 135°23'0 0.0
2017-Oct-18 18:27N 34°31' E 135°23'0 0.0
2017-Oct-18 17:57N 34°31' E 135°23'0 0.0
2017-Oct-18 16:39N 34°31' E 135°23'0 0.0
2017-Oct-18 16:21N 34°31' E 135°23'0 0.0
2017-Oct-18 15:51N 34°31' E 135°23'0 0.0
2017-Oct-18 11:02N 34°31' E 135°23'0 0.0
2017-Oct-18 10:56N 34°31' E 135°23'0 0.0
2017-Oct-18 09:44N 34°31' E 135°23'0 0.0
2017-Oct-18 07:38N 34°31' E 135°23'0 0.0
2017-Oct-18 07:14N 34°31' E 135°23'0 0.0
2017-Oct-18 05:46N 34°31' E 135°23'1 2.1
2017-Oct-18 05:29N 34°31' E 135°23'2 0.3
2017-Oct-17 21:36N 34°32' E 135°21'1 8.6
2017-Oct-17 21:30N 34°32' E 135°20'510.2
2017-Oct-17 21:00N 34°34' E 135°14'611.2
2017-Oct-17 20:30N 34°34' E 135°07'510.0
2017-Oct-17 20:00N 34°37' E 135°02'13 0.3
2017-Oct-16 05:09N 34°40' E 134°47'3 0.4
2017-Oct-15 22:27N 34°41' E 134°50'1 0.1
2017-Oct-15 16:35N 34°41' E 134°50'0 0.0
2017-Oct-15 16:29N 34°41' E 134°50'0 0.0
2017-Oct-15 15:59N 34°41' E 134°50'0 0.0
2017-Oct-15 12:06N 34°40' E 134°50'5 9.3
2017-Oct-15 11:35N 34°37' E 134°54'111.7
2017-Oct-15 11:28N 34°37' E 134°56'612.5
2017-Oct-15 11:00N 34°36' E 135°03'611.2
2017-Oct-15 10:30N 34°31' E 135°05'1212.0
2017-Oct-15 09:28N 34°19' E 135°04'611.8
2017-Oct-15 08:57N 34°13' E 135°03'512.0
2017-Oct-15 08:30N 34°07' E 135°03'22310.0
2017-Oct-14 10:10N 35°00' E 139°26'411.3
2017-Oct-14 09:51N 35°02' E 139°30'411.9
2017-Oct-14 09:31N 35°04' E 139°34'612.6
2017-Oct-14 09:00N 35°07' E 139°40'713.2
2017-Oct-14 08:30N 35°12' E 139°46'612.1
2017-Oct-14 08:00N 35°18' E 139°44'611.9
2017-Oct-14 07:30N 35°24' E 139°43'612.7
2017-Oct-14 07:00N 35°28' E 139°49'  
Track history (hours):
 
Tides and Currents Weather Stations Pressure Air Temp Water Temp Dewpoint Dewpoint Depression Visibility Wind Speed Wind Dir Waves Ship Positions

Shosei Maru

Last reported at 2017-Oct-20 14:33 UTC. Time now 2017-Oct-20 16:12 UTC.
Position N 34°38' E 135°28'.

Length 68 m; draft 4 m.

Type: Cargo ship. MMSI: 431001108.

Date/timePositionNaut miles runAvg speedWind from/ knotsBaromVisibWave heightAir tempDewpointWater temp
2017-Oct-20 14:33N 34°38' E 135°28'0 0.0
2017-Oct-20 14:15N 34°38' E 135°28'0 0.0
2017-Oct-20 13:21N 34°38' E 135°28'0 0.0
2017-Oct-20 12:57N 34°38' E 135°28'0 0.0
2017-Oct-20 11:27N 34°38' E 135°28'0 0.0
2017-Oct-19 12:57N 34°38' E 135°28'0 0.0
2017-Oct-19 12:21N 34°38' E 135°28'0 0.0
2017-Oct-19 11:15N 34°38' E 135°28'0 0.0
2017-Oct-19 07:58N 34°38' E 135°28'2 4.4
2017-Oct-19 07:29N 34°39' E 135°26'5 9.5
2017-Oct-19 07:00N 34°36' E 135°21'510.3
2017-Oct-19 06:28N 34°31' E 135°23'0 0.1
2017-Oct-19 05:51N 34°31' E 135°23'0 0.0
2017-Oct-19 04:45N 34°31' E 135°23'0 0.0
2017-Oct-19 04:27N 34°31' E 135°23'0 0.0
2017-Oct-19 03:57N 34°31' E 135°23'0 0.0
2017-Oct-19 03:27N 34°31' E 135°23'0 0.0
2017-Oct-19 02:57N 34°31' E 135°23'0 0.0
2017-Oct-19 01:21N 34°31' E 135°23'0 0.0
2017-Oct-18 23:51N 34°31' E 135°23'0 0.0
2017-Oct-18 23:09N 34°31' E 135°23'0 0.0
2017-Oct-18 22:57N 34°31' E 135°23'0 0.0
2017-Oct-18 22:27N 34°31' E 135°23'0 0.0
2017-Oct-18 21:51N 34°31' E 135°23'0 0.0
2017-Oct-18 21:27N 34°31' E 135°23'0 0.0
2017-Oct-18 20:57N 34°31' E 135°23'0 0.0
2017-Oct-18 20:27N 34°31' E 135°23'0 0.0
2017-Oct-18 18:27N 34°31' E 135°23'0 0.0
2017-Oct-18 17:57N 34°31' E 135°23'0 0.0
2017-Oct-18 16:39N 34°31' E 135°23'0 0.0
2017-Oct-18 16:21N 34°31' E 135°23'0 0.0
2017-Oct-18 15:51N 34°31' E 135°23'0 0.0
2017-Oct-18 11:02N 34°31' E 135°23'0 0.0
2017-Oct-18 10:56N 34°31' E 135°23'0 0.0
2017-Oct-18 09:44N 34°31' E 135°23'0 0.0
2017-Oct-18 07:38N 34°31' E 135°23'0 0.0
2017-Oct-18 07:14N 34°31' E 135°23'0 0.0
2017-Oct-18 05:46N 34°31' E 135°23'1 2.1
2017-Oct-18 05:29N 34°31' E 135°23'2 0.3
2017-Oct-17 21:36N 34°32' E 135°21'1 8.6
2017-Oct-17 21:30N 34°32' E 135°20'510.2
2017-Oct-17 21:00N 34°34' E 135°14'611.2
2017-Oct-17 20:30N 34°34' E 135°07'510.0
2017-Oct-17 20:00N 34°37' E 135°02'13 0.3
2017-Oct-16 05:09N 34°40' E 134°47'3 0.4
2017-Oct-15 22:27N 34°41' E 134°50'1 0.1
2017-Oct-15 16:35N 34°41' E 134°50'0 0.0
2017-Oct-15 16:29N 34°41' E 134°50'0 0.0
2017-Oct-15 15:59N 34°41' E 134°50'0 0.0
2017-Oct-15 12:06N 34°40' E 134°50'5 9.3
2017-Oct-15 11:35N 34°37' E 134°54'111.7
2017-Oct-15 11:28N 34°37' E 134°56'612.5
2017-Oct-15 11:00N 34°36' E 135°03'611.2
2017-Oct-15 10:30N 34°31' E 135°05'1212.0
2017-Oct-15 09:28N 34°19' E 135°04'611.8
2017-Oct-15 08:57N 34°13' E 135°03'512.0
2017-Oct-15 08:30N 34°07' E 135°03'22310.0
2017-Oct-14 10:10N 35°00' E 139°26'411.3
2017-Oct-14 09:51N 35°02' E 139°30'411.9
2017-Oct-14 09:31N 35°04' E 139°34'612.6
2017-Oct-14 09:00N 35°07' E 139°40'713.2
2017-Oct-14 08:30N 35°12' E 139°46'612.1
2017-Oct-14 08:00N 35°18' E 139°44'611.9
2017-Oct-14 07:30N 35°24' E 139°43'612.7
2017-Oct-14 07:00N 35°28' E 139°49'  

Dump ship's entire track history